createdAt,value
2022-08-21T00:00:19.114Z,11.55
2022-08-21T00:02:55.362Z,10.05
2022-08-21T00:05:23.284Z,9.10
2022-08-21T00:07:49.837Z,13.30
2022-08-21T00:10:17.162Z,7.00
2022-08-21T00:12:44.301Z,8.57
2022-08-21T00:15:14.020Z,8.70
2022-08-21T00:17:40.617Z,12.77
2022-08-21T00:20:09.697Z,9.52
2022-08-21T00:22:36.937Z,10.60
2022-08-21T00:25:05.416Z,9.68
2022-08-21T00:27:31.836Z,10.52
2022-08-21T00:29:58.390Z,9.93
2022-08-21T00:32:26.245Z,10.85
2022-08-21T00:34:53.072Z,11.05
2022-08-21T00:37:19.860Z,13.05
2022-08-21T00:39:46.415Z,11.07
2022-08-21T00:42:15.889Z,13.82
2022-08-21T00:44:44.700Z,7.00
2022-08-21T00:47:11.758Z,7.03
2022-08-21T00:49:39.478Z,9.30
2022-08-21T00:52:08.504Z,9.98
2022-08-21T00:54:35.087Z,11.48
2022-08-21T00:57:06.339Z,10.07
2022-08-21T00:59:36.176Z,13.23
2022-08-21T01:02:03.288Z,7.18
2022-08-21T01:04:29.739Z,9.25
2022-08-21T01:06:56.169Z,11.63
2022-08-21T01:09:22.664Z,10.43
2022-08-21T01:11:49.206Z,8.18
2022-08-21T01:14:16.328Z,12.23
2022-08-21T01:16:46.103Z,7.60
2022-08-21T01:19:13.769Z,8.93
2022-08-21T01:21:40.396Z,8.15
2022-08-21T01:24:06.951Z,9.48
2022-08-21T01:26:38.164Z,8.40
2022-08-21T01:29:31.715Z,7.17
2022-08-21T01:32:00.336Z,12.30
2022-08-21T01:34:26.831Z,11.32
2022-08-21T01:36:53.246Z,6.72
2022-08-21T01:39:19.804Z,10.55
2022-08-21T01:41:46.445Z,8.10
2022-08-21T01:44:12.897Z,17.00
2022-08-21T01:46:39.318Z,8.93
2022-08-21T01:49:06.334Z,7.25
2022-08-21T01:51:33.130Z,11.35
2022-08-21T01:53:59.574Z,13.07
2022-08-21T01:56:26.950Z,9.88
2022-08-21T01:58:53.367Z,10.23
2022-08-21T02:01:19.863Z,11.73
2022-08-21T02:03:46.386Z,10.20
2022-08-21T02:06:15.813Z,14.02
2022-08-21T02:08:42.231Z,9.60
2022-08-21T02:11:08.647Z,8.15
2022-08-21T02:13:35.102Z,12.25
2022-08-21T02:16:01.494Z,10.18
2022-08-21T02:18:27.911Z,11.70
2022-08-21T02:20:56.302Z,11.52
2022-08-21T02:23:27.263Z,13.70
2022-08-21T02:26:05.548Z,11.60
2022-08-21T02:28:32.410Z,8.65
2022-08-21T02:30:59.408Z,15.07
2022-08-21T02:33:26.830Z,15.65
2022-08-21T02:35:54.167Z,10.80
2022-08-21T02:38:23.887Z,11.90
2022-08-21T02:40:51.879Z,12.20
2022-08-21T02:43:20.748Z,11.52
2022-08-21T02:45:47.754Z,10.95
2022-08-21T02:48:17.996Z,12.27
2022-08-21T02:50:49.678Z,12.10
2022-08-21T02:53:17.522Z,10.98
2022-08-21T02:55:49.336Z,8.68
2022-08-21T02:58:18.801Z,9.15
2022-08-21T03:00:45.741Z,10.25
2022-08-21T03:03:14.587Z,10.93
2022-08-21T03:05:41.311Z,8.73
2022-08-21T03:08:10.403Z,10.45
2022-08-21T03:10:38.660Z,10.90
2022-08-21T03:13:05.056Z,16.20
2022-08-21T03:15:32.302Z,10.30
2022-08-21T03:17:58.745Z,11.35
2022-08-21T03:20:27.186Z,11.30
2022-08-21T03:22:54.319Z,14.00
2022-08-21T03:25:39.989Z,12.93
2022-08-21T03:28:11.767Z,10.93
2022-08-21T03:30:40.663Z,8.82
2022-08-21T03:33:07.066Z,11.57
2022-08-21T03:35:33.537Z,9.57
2022-08-21T03:38:00.183Z,10.55
2022-08-21T03:40:26.900Z,10.35
2022-08-21T03:42:53.312Z,12.85
2022-08-21T03:45:20.443Z,13.13
2022-08-21T03:48:01.755Z,9.40
2022-08-21T03:50:31.522Z,7.97
2022-08-21T03:52:58.777Z,8.38
2022-08-21T03:55:26.304Z,13.13
2022-08-21T03:57:52.747Z,12.85
2022-08-21T04:00:19.963Z,11.90
2022-08-21T04:02:46.871Z,11.20
2022-08-21T04:05:15.192Z,11.23
2022-08-21T04:07:41.631Z,10.25
2022-08-21T04:10:08.869Z,12.05
2022-08-21T04:12:35.438Z,8.07
2022-08-21T04:15:02.803Z,12.45
2022-08-21T04:17:29.228Z,13.73
2022-08-21T04:19:55.958Z,10.20
2022-08-21T04:22:22.382Z,10.07
2022-08-21T04:24:48.865Z,9.50
2022-08-21T04:27:15.284Z,9.38
2022-08-21T04:29:41.829Z,10.90
2022-08-21T04:32:08.299Z,11.82
2022-08-21T04:34:34.763Z,13.10
2022-08-21T04:37:01.184Z,16.60
2022-08-21T04:39:29.833Z,13.73
2022-08-21T04:41:56.555Z,9.88
2022-08-21T04:44:22.958Z,9.23
2022-08-21T04:46:49.379Z,13.60
2022-08-21T04:49:15.810Z,12.48
2022-08-21T04:51:42.263Z,13.35
2022-08-21T04:54:12.677Z,12.63
2022-08-21T04:57:01.316Z,13.73
2022-08-21T04:59:33.216Z,10.48
2022-08-21T05:02:01.388Z,12.48
2022-08-21T05:04:31.112Z,10.80
2022-08-21T05:07:00.560Z,14.48
2022-08-21T05:09:27.951Z,11.60
2022-08-21T05:11:55.458Z,13.85
2022-08-21T05:14:21.864Z,12.18
2022-08-21T05:16:48.337Z,12.45
2022-08-21T05:19:14.789Z,11.93
2022-08-21T05:21:43.193Z,14.38
2022-08-21T05:24:10.233Z,11.60
2022-08-21T05:26:38.314Z,11.07
2022-08-21T05:29:12.962Z,16.45
2022-08-21T05:31:39.615Z,13.40
2022-08-21T05:34:07.249Z,15.73
2022-08-21T05:36:33.612Z,10.73
2022-08-21T05:39:00.039Z,13.57
2022-08-21T05:41:26.482Z,13.98
2022-08-21T05:43:52.947Z,12.32
2022-08-21T05:46:19.313Z,13.63
2022-08-21T05:48:45.716Z,11.77
2022-08-21T05:51:14.375Z,13.02
2022-08-21T05:53:43.011Z,15.52
2022-08-21T05:56:10.258Z,14.75
2022-08-21T05:58:36.633Z,12.73
2022-08-21T06:01:04.017Z,15.82
2022-08-21T06:03:33.228Z,17.55
2022-08-21T06:05:59.644Z,20.52
2022-08-21T06:08:26.403Z,15.35
2022-08-21T06:10:53.599Z,21.13
2022-08-21T06:13:21.304Z,15.95
2022-08-21T06:15:48.063Z,19.77
2022-08-21T06:18:14.515Z,18.27
2022-08-21T06:20:41.324Z,19.83
2022-08-21T06:23:08.109Z,16.85
2022-08-21T06:25:34.886Z,16.20
2022-08-21T06:28:09.736Z,16.13
2022-08-21T06:30:38.295Z,19.05
2022-08-21T06:33:05.323Z,16.20
2022-08-21T06:35:31.725Z,17.52
2022-08-21T06:37:58.705Z,17.77
2022-08-21T06:40:26.429Z,20.92
2022-08-21T06:42:52.949Z,22.42
2022-08-21T06:45:19.899Z,18.63
2022-08-21T06:47:46.319Z,20.70
2022-08-21T06:50:13.485Z,20.35
2022-08-21T06:52:40.248Z,22.27
2022-08-21T06:55:09.282Z,23.13
2022-08-21T06:57:36.007Z,27.17
2022-08-21T07:00:05.634Z,18.30
2022-08-21T07:02:34.157Z,19.02
2022-08-21T07:05:00.595Z,18.75
2022-08-21T07:07:26.983Z,16.35
2022-08-21T07:09:53.388Z,17.33
2022-08-21T07:12:20.512Z,16.88
2022-08-21T07:14:46.916Z,16.60
2022-08-21T07:17:13.303Z,16.45
2022-08-21T07:19:39.727Z,18.20
2022-08-21T07:22:06.161Z,13.90
2022-08-21T07:24:32.588Z,17.55
2022-08-21T07:26:59.028Z,15.35
2022-08-21T07:29:25.466Z,13.40
2022-08-21T07:31:51.860Z,14.15
2022-08-21T07:34:18.368Z,15.88
2022-08-21T07:36:45.012Z,12.13
2022-08-21T07:39:11.632Z,14.90
2022-08-21T07:41:38.517Z,14.02
2022-08-21T07:44:04.915Z,13.55
2022-08-21T07:46:33.132Z,11.95
2022-08-21T07:48:59.536Z,12.93
2022-08-21T07:51:27.916Z,20.65
2022-08-21T07:53:56.691Z,14.25
2022-08-21T07:56:23.172Z,12.43
2022-08-21T07:58:49.993Z,20.05
2022-08-21T08:01:16.449Z,16.20
2022-08-21T08:03:42.914Z,19.85
2022-08-21T08:06:13.125Z,15.55
2022-08-21T08:08:41.521Z,17.60
2022-08-21T08:11:11.235Z,20.90
2022-08-21T08:13:42.770Z,11.95
2022-08-21T08:16:09.386Z,16.60
2022-08-21T08:18:35.848Z,18.00
2022-08-21T08:21:02.282Z,16.40
2022-08-21T08:23:28.704Z,16.63
2022-08-21T08:25:55.110Z,16.38
2022-08-21T08:28:22.741Z,15.93
2022-08-21T08:30:50.438Z,14.45
2022-08-21T08:33:17.896Z,14.98
2022-08-21T08:35:48.343Z,13.95
2022-08-21T08:38:20.964Z,14.40
2022-08-21T08:41:13.932Z,12.30
2022-08-21T08:43:42.330Z,11.68
2022-08-21T08:46:14.342Z,9.23
2022-08-21T08:52:00.356Z,10.15
2022-08-21T08:54:38.275Z,8.38
2022-08-21T08:57:08.967Z,7.88
2022-08-21T08:59:50.319Z,8.68
2022-08-21T09:02:17.700Z,8.35
2022-08-21T09:04:46.640Z,10.07
2022-08-21T09:07:28.945Z,9.77
2022-08-21T09:10:13.489Z,8.02
2022-08-21T09:13:14.175Z,5.63
2022-08-21T09:16:05.011Z,9.38
2022-08-21T09:18:46.352Z,8.40
2022-08-21T09:21:32.985Z,9.73
2022-08-21T09:24:28.128Z,8.80
2022-08-21T09:27:12.428Z,6.88
2022-08-21T09:29:44.723Z,6.78
2022-08-21T09:32:24.272Z,12.57
2022-08-21T09:35:09.961Z,6.32
2022-08-21T09:37:52.710Z,8.55
2022-08-21T09:40:44.871Z,7.30
2022-08-21T09:43:26.278Z,6.22
2022-08-21T09:46:08.681Z,6.20
2022-08-21T09:48:53.272Z,9.57
2022-08-21T09:51:28.648Z,10.55
2022-08-21T09:54:07.273Z,6.63
2022-08-21T09:57:13.275Z,7.85
2022-08-21T09:59:40.184Z,5.43
2022-08-21T10:02:27.943Z,5.05
2022-08-21T10:04:57.340Z,8.20
2022-08-21T10:07:25.599Z,4.57
2022-08-21T10:10:02.420Z,8.13
2022-08-21T10:12:55.282Z,6.00
2022-08-21T10:15:53.953Z,7.07
2022-08-21T10:18:39.487Z,5.65
2022-08-21T10:21:21.219Z,5.25
2022-08-21T10:24:02.035Z,10.65
2022-08-21T10:27:00.890Z,6.55
2022-08-21T10:29:56.950Z,6.75
2022-08-21T10:32:38.262Z,7.15
2022-08-21T10:35:34.994Z,6.13
2022-08-21T10:38:48.877Z,6.07
2022-08-21T10:41:36.971Z,4.38
2022-08-21T10:44:29.583Z,9.17
2022-08-21T10:47:09.772Z,5.10
2022-08-21T10:49:36.077Z,7.25
2022-08-21T10:52:21.252Z,9.15
2022-08-21T10:54:53.831Z,2.50
2022-08-21T10:57:32.257Z,4.10
2022-08-21T11:00:12.322Z,6.22
2022-08-21T11:02:48.143Z,7.35
2022-08-21T11:05:28.346Z,5.80
2022-08-21T11:07:59.634Z,6.10
2022-08-21T11:10:32.268Z,6.30
2022-08-21T11:13:34.233Z,4.40
2022-08-21T11:16:15.312Z,2.78
2022-08-21T11:18:50.620Z,5.37
2022-08-21T11:21:37.927Z,6.68
2022-08-21T11:24:29.324Z,3.65
2022-08-21T11:27:01.243Z,2.60
2022-08-21T11:32:16.337Z,2.47
2022-08-21T11:35:01.383Z,3.42
2022-08-21T11:37:52.652Z,2.95
2022-08-21T11:40:45.768Z,3.20
2022-08-21T11:43:24.125Z,1.88
2022-08-21T11:46:01.728Z,3.50
2022-08-21T11:48:39.968Z,3.17
2022-08-21T11:51:17.351Z,2.35
2022-08-21T11:53:54.224Z,4.43
2022-08-21T11:56:39.881Z,3.22
2022-08-21T11:59:14.640Z,2.95
2022-08-21T12:01:45.792Z,3.00
2022-08-21T12:04:35.799Z,4.13
2022-08-21T12:07:30.422Z,3.28
2022-08-21T12:09:58.417Z,2.83
2022-08-21T12:12:35.994Z,3.10
2022-08-21T12:15:20.680Z,1.92
2022-08-21T12:18:01.794Z,1.70
2022-08-21T12:20:28.205Z,2.80
2022-08-21T12:23:15.927Z,3.33
2022-08-21T12:26:01.905Z,3.05
2022-08-21T12:28:30.018Z,2.50
2022-08-21T12:30:58.157Z,2.13
2022-08-21T12:33:38.583Z,3.65
2022-08-21T12:36:13.075Z,2.08
2022-08-21T12:38:55.552Z,1.50
2022-08-21T12:41:35.504Z,1.83
2022-08-21T12:44:06.545Z,2.00
2022-08-21T12:46:40.840Z,1.98
2022-08-21T12:49:15.013Z,8.90
2022-08-21T12:51:56.934Z,1.77
2022-08-21T12:54:26.441Z,1.27
2022-08-21T12:57:02.135Z,1.63
2022-08-21T12:59:29.495Z,3.80
2022-08-21T13:01:57.319Z,2.60
2022-08-21T13:04:35.137Z,1.52
2022-08-21T13:07:01.593Z,2.08
2022-08-21T13:09:30.953Z,2.20
2022-08-21T13:11:58.484Z,2.78
2022-08-21T13:14:32.885Z,2.72
2022-08-21T13:17:00.834Z,1.35
2022-08-21T13:19:28.097Z,2.25
2022-08-21T13:21:54.534Z,1.40
2022-08-21T13:24:42.917Z,1.63
2022-08-21T13:27:19.481Z,2.67
2022-08-21T13:29:50.336Z,1.90
2022-08-21T13:32:24.836Z,1.92
2022-08-21T13:34:54.001Z,2.03
2022-08-21T13:37:22.095Z,2.22
2022-08-21T13:39:53.473Z,2.30
2022-08-21T13:42:20.272Z,1.08
2022-08-21T13:44:48.080Z,2.08
2022-08-21T13:47:16.235Z,3.63
2022-08-21T13:49:50.313Z,1.95
2022-08-21T13:52:22.851Z,1.98
2022-08-21T13:55:10.358Z,1.30
2022-08-21T13:57:38.691Z,4.47
2022-08-21T14:00:11.414Z,3.40
2022-08-21T14:02:41.756Z,4.15
2022-08-21T14:05:09.175Z,1.90
2022-08-21T14:07:37.628Z,2.10
2022-08-21T14:10:20.724Z,1.80
2022-08-21T14:12:53.723Z,1.33
2022-08-21T14:15:25.187Z,1.27
2022-08-21T14:17:52.282Z,3.17
2022-08-21T14:20:33.852Z,1.40
2022-08-21T14:23:00.880Z,2.05
2022-08-21T14:25:31.590Z,2.03
2022-08-21T14:28:09.801Z,1.23
2022-08-21T14:30:39.884Z,1.00
2022-08-21T14:33:13.518Z,0.85
2022-08-21T14:35:40.645Z,2.40
2022-08-21T14:38:18.366Z,0.73
2022-08-21T14:40:48.012Z,2.60
2022-08-21T14:43:14.465Z,1.77
2022-08-21T14:45:41.644Z,2.00
2022-08-21T14:48:08.671Z,3.35
2022-08-21T14:50:35.092Z,1.20
2022-08-21T14:53:01.776Z,2.95
2022-08-21T14:55:28.372Z,1.48
2022-08-21T14:57:56.979Z,4.43
2022-08-21T15:00:27.161Z,0.80
2022-08-21T15:03:02.958Z,2.13
2022-08-21T15:05:32.899Z,1.15
2022-08-21T15:08:00.056Z,3.40
2022-08-21T15:10:26.609Z,3.03
2022-08-21T15:12:53.021Z,2.30
2022-08-21T15:15:19.473Z,1.17
2022-08-21T15:17:48.328Z,1.15
2022-08-21T15:20:15.194Z,2.00
2022-08-21T15:22:41.606Z,2.28
2022-08-21T15:25:14.343Z,4.55
2022-08-21T15:27:40.898Z,2.17
2022-08-21T15:30:08.019Z,3.65
2022-08-21T15:32:34.476Z,2.70
2022-08-21T15:35:01.115Z,2.70
2022-08-21T15:37:27.633Z,2.63
2022-08-21T15:39:54.678Z,1.33
2022-08-21T15:42:22.089Z,1.90
2022-08-21T15:44:48.578Z,2.78
2022-08-21T15:47:20.417Z,2.72
2022-08-21T15:49:46.839Z,1.70
2022-08-21T15:52:15.847Z,2.65
2022-08-21T15:54:42.388Z,2.08
2022-08-21T15:57:10.832Z,2.67
2022-08-21T15:59:41.417Z,3.25
2022-08-21T16:02:15.109Z,2.85
2022-08-21T16:04:41.655Z,2.25
2022-08-21T16:07:09.812Z,1.58
2022-08-21T16:09:36.665Z,2.05
2022-08-21T16:12:05.378Z,3.10
2022-08-21T16:14:32.584Z,2.20
2022-08-21T16:16:59.170Z,5.53
2022-08-21T16:19:27.380Z,3.80
2022-08-21T16:21:53.781Z,4.30
2022-08-21T16:24:20.204Z,4.00
2022-08-21T16:26:46.692Z,2.92
2022-08-21T16:29:26.155Z,4.25
2022-08-21T16:31:53.612Z,1.92
2022-08-21T16:34:20.793Z,6.22
2022-08-21T16:36:47.902Z,2.70
2022-08-21T16:39:14.444Z,3.42
2022-08-21T16:41:40.927Z,1.27
2022-08-21T16:44:07.705Z,3.47
2022-08-21T16:46:38.973Z,2.08
2022-08-21T16:49:05.405Z,3.30
2022-08-21T16:51:31.808Z,3.38
2022-08-21T16:53:58.783Z,2.28
2022-08-21T16:56:25.361Z,1.73
2022-08-21T16:58:53.446Z,1.77
2022-08-21T17:01:24.629Z,2.25
2022-08-21T17:03:51.660Z,2.17
2022-08-21T17:06:18.880Z,6.53
2022-08-21T17:08:45.574Z,3.85
2022-08-21T17:11:42.283Z,2.60
2022-08-21T17:14:14.603Z,4.20
2022-08-21T17:16:43.021Z,3.78
2022-08-21T17:19:09.745Z,2.40
2022-08-21T17:21:36.158Z,4.13
2022-08-21T17:24:02.689Z,3.90
2022-08-21T17:26:29.097Z,2.45
2022-08-21T17:28:55.576Z,2.40
2022-08-21T17:31:22.318Z,1.75
2022-08-21T17:33:52.736Z,2.72
2022-08-21T17:36:25.571Z,2.33
2022-08-21T17:38:52.377Z,2.35
2022-08-21T17:41:22.292Z,2.50
2022-08-21T17:43:49.427Z,2.08
2022-08-21T17:46:19.955Z,3.15
2022-08-21T17:48:47.457Z,4.70
2022-08-21T17:51:14.460Z,4.47
2022-08-21T17:53:41.076Z,4.30
2022-08-21T17:56:07.672Z,3.03
2022-08-21T17:58:34.901Z,5.90
2022-08-21T18:01:05.723Z,2.63
2022-08-21T18:03:38.324Z,2.65
2022-08-21T18:06:05.267Z,2.55
2022-08-21T18:08:32.615Z,2.15
2022-08-21T18:10:59.815Z,4.28
2022-08-21T18:13:29.629Z,2.17
2022-08-21T18:15:57.077Z,2.70
2022-08-21T18:18:25.188Z,2.03
2022-08-21T18:20:52.897Z,2.65
2022-08-21T18:23:19.784Z,4.07
2022-08-21T18:25:59.559Z,3.75
2022-08-21T18:28:26.244Z,3.75
2022-08-21T18:30:54.281Z,4.18
2022-08-21T18:33:21.374Z,4.13
2022-08-21T18:35:48.114Z,6.00
2022-08-21T18:38:21.014Z,3.08
2022-08-21T18:40:55.228Z,2.67
2022-08-21T18:43:23.007Z,2.50
2022-08-21T18:45:49.584Z,2.95
2022-08-21T18:48:17.803Z,3.95
2022-08-21T18:50:45.532Z,2.65
2022-08-21T18:53:18.225Z,3.63
2022-08-21T18:55:54.150Z,2.90
2022-08-21T18:58:23.736Z,1.92
2022-08-21T19:00:51.466Z,4.70
2022-08-21T19:03:24.367Z,4.88
2022-08-21T19:05:53.142Z,4.57
2022-08-21T19:08:21.976Z,2.08
2022-08-21T19:10:50.126Z,5.07
2022-08-21T19:13:18.375Z,2.83
2022-08-21T19:15:49.778Z,6.18
2022-08-21T19:18:17.600Z,5.22
2022-08-21T19:20:47.339Z,4.03
2022-08-21T19:23:16.625Z,2.95
2022-08-21T19:25:45.276Z,4.82
2022-08-21T19:28:17.316Z,3.42
2022-08-21T19:33:23.663Z,3.22
2022-08-21T19:36:10.260Z,2.92
2022-08-21T19:38:37.613Z,7.70
2022-08-21T19:41:05.202Z,3.20
2022-08-21T19:43:33.146Z,4.15
2022-08-21T19:46:00.637Z,3.20
2022-08-21T19:48:27.150Z,4.88
2022-08-21T19:50:53.789Z,4.68
2022-08-21T19:53:20.223Z,4.30
2022-08-21T19:55:48.127Z,5.35
2022-08-21T19:58:33.160Z,4.78
2022-08-21T20:00:59.738Z,3.28
2022-08-21T20:03:26.304Z,3.83
2022-08-21T20:08:39.158Z,2.55
2022-08-21T20:11:05.737Z,3.85
2022-08-21T20:13:33.687Z,3.83
2022-08-21T20:16:07.822Z,3.55
2022-08-21T20:18:36.208Z,4.63
2022-08-21T20:21:04.743Z,4.75
2022-08-21T20:23:31.339Z,4.70
2022-08-21T20:26:00.937Z,3.78
2022-08-21T20:28:28.809Z,3.78
2022-08-21T20:30:55.794Z,3.45
2022-08-21T20:33:22.368Z,4.40
2022-08-21T20:35:49.978Z,4.13
2022-08-21T20:38:16.841Z,5.65
2022-08-21T20:40:43.828Z,3.08
2022-08-21T20:43:12.886Z,3.58
2022-08-21T20:45:39.719Z,5.47
2022-08-21T20:48:18.805Z,3.78
2022-08-21T20:50:55.696Z,7.65
2022-08-21T20:53:47.788Z,4.45
2022-08-21T20:56:33.160Z,2.35
2022-08-21T20:59:06.383Z,8.25
2022-08-21T21:01:33.394Z,4.85
2022-08-21T21:04:15.895Z,2.95
2022-08-21T21:06:49.966Z,4.72
2022-08-21T21:09:34.877Z,5.57
2022-08-21T21:12:11.027Z,2.65
2022-08-21T21:14:45.050Z,5.97
2022-08-21T21:17:28.256Z,5.10
2022-08-21T21:20:07.968Z,4.95
2022-08-21T21:22:41.988Z,5.30
2022-08-21T21:25:39.984Z,5.20
2022-08-21T21:28:12.856Z,9.18
2022-08-21T21:30:46.453Z,7.88
2022-08-21T21:33:16.292Z,10.32
2022-08-21T21:35:49.726Z,5.97
2022-08-21T21:38:23.066Z,9.93
2022-08-21T21:41:15.708Z,8.70
2022-08-21T21:43:51.027Z,9.63
2022-08-21T21:46:31.084Z,9.05
2022-08-21T21:49:05.464Z,7.13
2022-08-21T21:51:46.659Z,8.02
2022-08-21T21:54:45.852Z,9.93
2022-08-21T21:57:49.481Z,13.43
2022-08-21T22:00:24.293Z,5.85
2022-08-21T22:03:12.518Z,10.88
2022-08-21T22:05:58.020Z,7.95
2022-08-21T22:08:33.502Z,10.75
2022-08-21T22:11:28.606Z,8.57
2022-08-21T22:14:08.540Z,11.50
2022-08-21T22:16:35.914Z,11.07
2022-08-21T22:19:18.468Z,12.05
2022-08-21T22:22:00.336Z,8.18
2022-08-21T22:24:32.123Z,12.00
2022-08-21T22:27:09.180Z,18.25
2022-08-21T22:29:48.625Z,15.68
2022-08-21T22:32:45.729Z,28.75
2022-08-21T22:35:25.815Z,14.38
2022-08-21T22:37:57.705Z,15.82
2022-08-21T22:40:31.372Z,9.43
2022-08-21T22:42:58.645Z,10.65
2022-08-21T22:45:26.570Z,13.40
2022-08-21T22:47:53.964Z,13.07
2022-08-21T22:50:26.786Z,12.18
2022-08-21T22:53:00.399Z,13.10
2022-08-21T22:55:39.300Z,7.95
2022-08-21T22:58:19.664Z,9.80
2022-08-21T23:00:57.795Z,7.13
2022-08-21T23:03:42.142Z,13.80
2022-08-21T23:06:35.022Z,11.73
2022-08-21T23:09:03.384Z,8.35
2022-08-21T23:11:43.042Z,11.35
2022-08-21T23:14:14.200Z,6.50
2022-08-21T23:16:53.351Z,16.07
2022-08-21T23:19:38.463Z,12.07
2022-08-21T23:25:31.860Z,10.90
2022-08-21T23:28:09.238Z,12.10
2022-08-21T23:30:41.158Z,10.13
2022-08-21T23:33:50.566Z,11.75
2022-08-21T23:36:59.760Z,10.88
2022-08-21T23:39:54.611Z,8.38
2022-08-21T23:42:38.685Z,12.95
2022-08-21T23:45:39.408Z,9.15
2022-08-21T23:48:29.386Z,7.20
2022-08-21T23:51:03.597Z,8.20
2022-08-21T23:53:35.494Z,9.45
2022-08-21T23:56:31.551Z,11.40
2022-08-21T23:59:28.157Z,7.85
